Time;durP1;ratioP1;P1;durP2;ratioP2;P2;SDS_P1;SDS_P2;PMS_P1;PMS_P2;Temp;Humidity;BMP_temperature;BMP_pressure;BME280_temperature;BME280_humidity;BME280_pressure;Samples;Min_cycle;Max_cycle;Signal;HPM_P1;HPM_P2
2023/03/22 00:00:46;;;;;;;50.10;30.85;;;;;;;8.56;100.00;100039.59;5029946;28;20500;-68
2023/03/22 00:03:12;;;;;;;47.13;30.40;;;;;;;8.69;100.00;100074.00;5029983;28;20120;-69
2023/03/22 00:05:38;;;;;;;50.53;31.05;;;;;;;8.93;100.00;100078.59;5030349;28;20032;-69
2023/03/22 00:08:06;;;;;;;47.15;30.75;;;;;;;8.52;100.00;100038.81;5028349;28;20046;-70
2023/03/22 00:10:33;;;;;;;45.47;31.60;;;;;;;8.57;100.00;100046.34;5028641;28;20037;-69
2023/03/22 00:12:59;;;;;;;48.97;30.67;;;;;;;8.58;100.00;100032.81;5030359;28;20120;-70
2023/03/22 00:15:25;;;;;;;49.97;30.75;;;;;;;8.86;100.00;100068.59;5030676;28;20175;-69
2023/03/22 00:17:55;;;;;;;46.95;30.83;;;;;;;8.75;100.00;100074.69;5029129;28;20124;-70
2023/03/22 00:20:22;;;;;;;50.38;30.95;;;;;;;8.50;100.00;100058.28;5029919;28;20033;-69
2023/03/22 00:22:48;;;;;;;52.30;30.95;;;;;;;8.49;100.00;100066.78;5030208;28;20033;-70
2023/03/22 00:25:14;;;;;;;55.90;32.08;;;;;;;8.31;100.00;100024.03;5030364;28;20112;-70
2023/03/22 00:27:40;;;;;;;52.10;31.23;;;;;;;8.72;100.00;100063.78;5029954;28;20026;-70
2023/03/22 00:30:06;;;;;;;50.17;31.17;;;;;;;8.48;100.00;100034.69;5029718;28;20048;-69
2023/03/22 00:32:38;;;;;;;57.08;32.78;;;;;;;8.86;100.00;100066.91;5030275;28;20033;-68
2023/03/22 00:35:05;;;;;;;50.53;31.90;;;;;;;8.65;100.00;100062.25;5030324;28;20472;-68
2023/03/22 00:37:33;;;;;;;56.67;31.65;;;;;;;8.71;100.00;100074.81;5029922;28;20041;-68
2023/03/22 00:40:03;;;;;;;52.45;32.08;;;;;;;8.85;100.00;100082.97;5029979;28;20033;-68
2023/03/22 00:42:29;;;;;;;51.33;31.55;;;;;;;8.84;100.00;100090.59;5028168;28;20161;-69
2023/03/22 00:44:55;;;;;;;55.58;33.40;;;;;;;8.57;100.00;100059.03;5029487;28;20056;-68
2023/03/22 00:47:21;;;;;;;52.63;31.77;;;;;;;8.89;100.00;100098.97;5031415;28;20029;-67
2023/03/22 00:49:47;;;;;;;49.65;32.10;;;;;;;8.97;100.00;100114.88;5031641;28;20033;-68
2023/03/22 00:52:13;;;;;;;52.38;32.58;;;;;;;8.97;100.00;100136.00;5033796;28;20060;-69
2023/03/22 00:54:38;;;;;;;52.88;31.92;;;;;;;8.79;100.00;100107.59;5033751;28;20030;-68
2023/03/22 00:57:04;;;;;;;52.22;33.97;;;;;;;8.73;100.00;100152.44;5033341;28;20570;-68
2023/03/22 00:59:29;;;;;;;53.38;33.03;;;;;;;8.62;100.00;100103.69;5033246;28;20021;-68
2023/03/22 01:01:57;;;;;;;63.58;34.38;;;;;;;8.87;100.00;100153.91;5031379;28;20053;-68
2023/03/22 01:04:24;;;;;;;55.95;33.28;;;;;;;8.59;100.00;100091.06;5033462;28;20038;-68
2023/03/22 01:06:57;;;;;;;58.22;33.78;;;;;;;8.69;100.00;100101.88;5031933;28;20413;-68
2023/03/22 01:09:27;;;;;;;53.72;33.50;;;;;;;8.93;100.00;100141.13;5033282;28;20029;-68
2023/03/22 01:11:55;;;;;;;56.63;34.40;;;;;;;9.12;100.00;100138.22;5031875;28;20041;-69
2023/03/22 01:14:21;;;;;;;54.92;33.55;;;;;;;9.14;100.00;100133.94;5050611;28;20025;-68
2023/03/22 01:16:47;;;;;;;56.05;33.65;;;;;;;8.93;100.00;100110.72;5053024;28;20064;-68
2023/03/22 01:19:12;;;;;;;53.75;33.85;;;;;;;8.94;100.00;100143.63;5052256;28;20127;-68
2023/03/22 01:21:38;;;;;;;58.30;34.67;;;;;;;8.77;100.00;100098.31;5051233;28;20144;-68
2023/03/22 01:24:03;;;;;;;63.40;34.25;;;;;;;8.86;100.00;100125.19;5052483;28;20029;-68
2023/03/22 01:26:29;;;;;;;58.42;34.05;;;;;;;8.57;100.00;100113.06;5051318;28;20483;-68
2023/03/22 01:28:54;;;;;;;48.67;31.67;;;;;;;8.95;100.00;100163.06;5052181;28;20120;-68
2023/03/22 01:31:20;;;;;;;58.90;32.60;;;;;;;8.96;100.00;100119.09;5052765;28;20457;-68
2023/03/22 01:33:45;;;;;;;57.92;33.35;;;;;;;9.30;100.00;100164.91;5052307;28;20496;-67
2023/03/22 01:36:11;;;;;;;55.90;33.92;;;;;;;9.40;100.00;100146.94;5052087;28;20033;-67
2023/03/22 01:38:36;;;;;;;57.83;33.80;;;;;;;9.31;100.00;100161.53;5052094;28;20040;-67
2023/03/22 01:41:02;;;;;;;57.28;33.53;;;;;;;9.28;100.00;100151.44;5052566;28;20476;-68
2023/03/22 01:43:27;;;;;;;56.70;34.42;;;;;;;9.21;100.00;100158.31;5052165;28;20071;-68
2023/03/22 01:45:53;;;;;;;55.83;34.33;;;;;;;8.90;100.00;100141.19;5052294;28;20416;-68
2023/03/22 01:48:34;;;;;;;56.15;35.28;;;;;;;9.06;100.00;100150.16;5051851;28;20112;-69
2023/03/22 01:51:13;;;;;;;59.05;33.67;;;;;;;8.92;100.00;100112.41;5050728;28;20033;-67
2023/03/22 01:53:44;;;;;;;59.10;33.92;;;;;;;9.35;100.00;100165.66;5050842;28;20412;-68
2023/03/22 01:56:11;;;;;;;58.55;34.15;;;;;;;9.45;100.00;100144.28;5052497;28;20037;-68
2023/03/22 01:58:38;;;;;;;57.28;34.47;;;;;;;8.77;100.00;100121.13;5051231;28;20050;-67
2023/03/22 02:01:06;;;;;;;55.95;33.70;;;;;;;8.90;100.00;100105.69;5050522;28;20057;-67
2023/03/22 02:03:41;;;;;;;63.47;36.00;;;;;;;8.89;100.00;100114.16;5052107;28;20123;-68
2023/03/22 02:06:07;;;;;;;62.45;35.78;;;;;;;8.77;100.00;100105.09;5051841;28;20014;-69
2023/03/22 02:08:32;;;;;;;61.10;35.38;;;;;;;8.89;100.00;100145.44;5051533;28;20040;-68
2023/03/22 02:11:00;;;;;;;66.07;35.60;;;;;;;8.77;100.00;100100.84;5051587;28;20033;-68
2023/03/22 02:13:28;;;;;;;59.83;35.55;;;;;;;9.20;100.00;100140.59;5051467;28;20108;-68
2023/03/22 02:16:24;;;;;;;59.58;35.83;;;;;;;8.91;100.00;100137.78;5051659;28;20029;-68
2023/03/22 02:19:09;;;;;;;60.95;35.20;;;;;;;8.91;100.00;100137.78;5052122;28;20067;-67
2023/03/22 02:21:54;;;;;;;56.92;34.90;;;;;;;8.96;100.00;100136.84;5029831;28;20029;-67
2023/03/22 02:24:50;;;;;;;65.80;33.80;;;;;;;9.23;100.00;100135.47;5050647;28;20470;-68
2023/03/22 02:27:40;;;;;;;62.67;33.72;;;;;;;8.85;100.00;100128.59;5051436;28;20029;-68
2023/03/22 02:30:30;;;;;;;61.25;35.10;;;;;;;8.75;100.00;100140.59;5050046;28;20424;-68
2023/03/22 02:33:18;;;;;;;56.78;34.38;;;;;;;9.09;100.00;100107.03;5051547;28;20029;-68
2023/03/22 02:35:52;;;;;;;53.97;33.47;;;;;;;9.29;100.00;100127.75;5051415;28;20032;-66
2023/03/22 02:38:41;;;;;;;51.85;32.00;;;;;;;9.11;100.00;100131.47;5051356;28;20028;-67
2023/03/22 02:41:32;;;;;;;56.80;31.63;;;;;;;9.14;100.00;100120.44;5051420;28;20025;-67
2023/03/22 02:44:03;;;;;;;50.88;31.58;;;;;;;8.92;100.00;100125.09;5031757;28;20475;-67
2023/03/22 02:46:47;;;;;;;58.65;31.85;;;;;;;8.63;100.00;100071.56;5049455;28;20040;-70
2023/03/22 02:49:19;;;;;;;53.85;32.45;;;;;;;8.90;100.00;100131.03;5050053;28;20410;-68
2023/03/22 02:52:06;;;;;;;51.30;31.90;;;;;;;9.05;100.00;100128.22;5049762;28;20406;-67
2023/03/22 02:54:42;;;;;;;52.00;32.63;;;;;;;8.92;100.00;100130.16;5051219;28;20037;-70
2023/03/22 02:57:14;;;;;;;58.10;32.22;;;;;;;8.57;100.00;100124.91;5051276;28;20028;-70
2023/03/22 02:59:42;;;;;;;55.25;32.70;;;;;;;8.65;100.00;100110.41;5050691;28;20507;-67
2023/03/22 03:02:11;;;;;;;53.47;33.40;;;;;;;8.71;100.00;100060.41;5050476;28;20523;-67
2023/03/22 03:04:46;;;;;;;53.72;32.65;;;;;;;8.77;100.00;100104.25;5049367;28;20078;-68
2023/03/22 03:07:16;;;;;;;51.60;33.53;;;;;;;8.53;100.00;100049.81;5050945;28;20488;-67
2023/03/22 03:09:43;;;;;;;59.20;34.15;;;;;;;8.84;100.00;100108.34;5050241;28;20029;-68
2023/03/22 03:12:20;;;;;;;55.03;32.85;;;;;;;8.74;100.00;100087.41;5050549;28;20041;-66
2023/03/22 03:14:45;;;;;;;56.60;32.53;;;;;;;8.44;100.00;100077.81;5051039;28;20041;-70
2023/03/22 03:17:23;;;;;;;53.20;32.22;;;;;;;8.55;100.00;100096.22;5050359;28;20047;-70
2023/03/22 03:19:55;;;;;;;53.40;32.00;;;;;;;8.82;100.00;100097.38;5050990;28;20115;-68
2023/03/22 03:22:49;;;;;;;55.60;33.15;;;;;;;8.29;100.00;100050.25;5049147;28;20459;-68
2023/03/22 03:25:24;;;;;;;55.92;32.60;;;;;;;8.46;100.00;100094.66;5049819;28;20043;-68
2023/03/22 03:27:56;;;;;;;55.83;34.40;;;;;;;8.22;100.00;100084.94;5049227;28;20028;-68
2023/03/22 03:30:33;;;;;;;56.90;34.25;;;;;;;8.56;100.00;100080.13;5048942;28;20037;-71
2023/03/22 03:33:05;;;;;;;50.25;32.95;;;;;;;8.26;100.00;100075.63;5049570;28;20115;-68
2023/03/22 03:35:38;;;;;;;54.28;34.70;;;;;;;8.29;100.00;100067.97;5050236;28;20120;-68
2023/03/22 03:38:17;;;;;;;57.15;35.60;;;;;;;8.28;100.00;100067.13;5050641;28;20035;-68
2023/03/22 03:41:05;;;;;;;59.45;35.40;;;;;;;8.23;100.00;100055.38;5050267;28;20117;-68
2023/03/22 03:43:33;;;;;;;56.97;34.63;;;;;;;8.67;100.00;100078.25;5050385;28;20029;-71
2023/03/22 03:45:59;;;;;;;57.15;33.90;;;;;;;8.54;100.00;100072.56;5050591;28;20115;-68
2023/03/22 03:48:28;;;;;;;54.00;34.03;;;;;;;8.09;100.00;100042.97;5050272;28;20447;-68
2023/03/22 03:50:56;;;;;;;55.28;33.55;;;;;;;8.18;100.00;100065.59;5050532;28;20043;-68
2023/03/22 03:53:21;;;;;;;56.03;33.50;;;;;;;8.40;100.00;100071.13;5048599;28;20064;-69
2023/03/22 03:55:47;;;;;;;52.42;33.22;;;;;;;7.85;100.00;100023.97;5050109;28;20056;-68
2023/03/22 03:58:14;;;;;;;54.33;34.25;;;;;;;8.11;100.00;100023.53;5050417;28;20033;-67
2023/03/22 04:00:40;;;;;;;57.35;33.10;;;;;;;8.02;100.00;100015.25;5049954;28;20049;-67
2023/03/22 04:03:06;;;;;;;56.80;32.75;;;;;;;7.82;100.00;99990.28;5050077;28;20090;-68
2023/03/22 04:05:32;;;;;;;60.38;34.03;;;;;;;8.38;100.00;100061.03;5049976;28;20063;-68
2023/03/22 04:07:57;;;;;;;54.88;33.53;;;;;;;8.32;100.00;100047.66;5050423;28;20033;-72
2023/03/22 04:10:23;;;;;;;57.78;33.20;;;;;;;8.45;100.00;100067.69;5050426;28;20459;-68
2023/03/22 04:12:48;;;;;;;57.50;34.08;;;;;;;8.32;100.00;100073.81;5048494;28;20021;-68
2023/03/22 04:15:14;;;;;;;57.15;35.00;;;;;;;8.12;100.00;100052.22;5050112;28;20506;-69
2023/03/22 04:17:40;;;;;;;60.38;35.10;;;;;;;8.29;100.00;100075.56;5049297;28;20435;-68
2023/03/22 04:20:09;;;;;;;66.35;36.50;;;;;;;7.79;100.00;100025.75;5049097;28;20414;-69
2023/03/22 04:22:37;;;;;;;64.43;36.30;;;;;;;8.20;100.00;100084.13;5051133;28;20025;-67
2023/03/22 04:25:04;;;;;;;66.38;36.65;;;;;;;8.14;100.00;100075.81;5051924;28;20032;-68
2023/03/22 04:27:29;;;;;;;64.80;35.90;;;;;;;7.98;100.00;100016.16;5053166;28;20029;-69
2023/03/22 04:29:54;;;;;;;65.30;37.47;;;;;;;8.12;100.00;100017.56;5052754;28;20028;-72
2023/03/22 04:32:24;;;;;;;59.25;36.05;;;;;;;8.12;100.00;100017.56;5052051;28;20112;-69
2023/03/22 04:34:51;;;;;;;62.22;32.75;;;;;;;8.90;100.00;100058.38;5053625;28;20033;-70
2023/03/22 04:37:18;;;;;;;60.78;36.38;;;;;;;8.30;100.00;100079.78;5053651;28;20037;-69
2023/03/22 04:39:44;;;;;;;58.45;33.28;;;;;;;9.13;100.00;100060.44;5052437;28;20029;-69
2023/03/22 04:42:10;;;;;;;61.15;36.15;;;;;;;8.65;100.00;100073.22;5052350;28;20119;-69
2023/03/22 04:44:35;;;;;;;58.78;34.92;;;;;;;8.54;100.00;100056.53;5053312;28;20120;-69
2023/03/22 04:47:01;;;;;;;63.47;36.60;;;;;;;8.28;100.00;100062.06;5053577;28;20025;-70
2023/03/22 04:49:26;;;;;;;57.55;34.58;;;;;;;8.26;100.00;100030.06;5053698;28;20055;-69
2023/03/22 04:51:55;;;;;;;63.75;35.88;;;;;;;8.49;100.00;100098.84;5053756;28;20128;-70
2023/03/22 04:54:21;;;;;;;60.55;34.67;;;;;;;8.13;100.00;100042.06;5053913;28;20113;-71
2023/03/22 04:56:47;;;;;;;60.92;35.95;;;;;;;8.26;100.00;100091.66;5053038;28;20045;-68
2023/03/22 04:59:13;;;;;;;61.15;35.53;;;;;;;8.40;100.00;100079.59;5051990;28;20025;-71
2023/03/22 05:01:39;;;;;;;63.47;35.58;;;;;;;8.35;100.00;100109.22;5052733;28;20114;-69
2023/03/22 05:04:05;;;;;;;60.50;35.15;;;;;;;8.58;100.00;100131.63;5051537;28;20033;-71
2023/03/22 05:06:34;;;;;;;63.33;35.58;;;;;;;8.93;100.00;100136.91;5053185;28;20334;-70
2023/03/22 05:08:59;;;;;;;60.72;35.80;;;;;;;8.82;100.00;100132.88;5053230;28;20487;-69
2023/03/22 05:11:26;;;;;;;62.17;35.03;;;;;;;8.69;100.00;100124.69;5052594;28;20044;-69
2023/03/22 05:13:55;;;;;;;64.43;35.92;;;;;;;8.47;100.00;100081.16;5053210;28;20082;-71
2023/03/22 05:16:21;;;;;;;69.82;35.88;;;;;;;8.61;100.00;100132.44;5051939;28;20048;-70
2023/03/22 05:18:48;;;;;;;61.85;35.28;;;;;;;8.80;100.00;100132.91;5052789;28;20025;-71
2023/03/22 05:21:16;;;;;;;56.65;33.28;;;;;;;8.44;100.00;100093.88;5053163;28;20029;-69
2023/03/22 05:23:43;;;;;;;63.60;34.75;;;;;;;8.80;100.00;100143.06;5053009;28;20021;-69
2023/03/22 05:26:09;;;;;;;64.07;34.25;;;;;;;8.77;100.00;100150.72;5051359;28;20480;-70
2023/03/22 05:28:36;;;;;;;58.97;32.38;;;;;;;8.79;100.00;100158.28;5053121;28;20032;-70
2023/03/22 05:31:02;;;;;;;55.35;32.22;;;;;;;8.51;100.00;100097.97;5052556;28;20361;-70
2023/03/22 05:33:28;;;;;;;62.35;34.13;;;;;;;8.71;100.00;100171.91;5052605;28;20091;-70
2023/03/22 05:35:54;;;;;;;61.67;32.97;;;;;;;8.73;100.00;100131.38;5053115;28;20071;-70
2023/03/22 05:38:27;;;;;;;54.67;33.13;;;;;;;8.86;100.00;100077.03;5052466;28;20404;-70
2023/03/22 05:40:52;;;;;;;59.13;32.08;;;;;;;8.79;100.00;100065.34;5052306;28;20635;-70
2023/03/22 05:43:18;;;;;;;60.00;33.72;;;;;;;8.95;100.00;100071.81;5051744;28;20037;-71
2023/03/22 05:45:44;;;;;;;53.03;32.30;;;;;;;9.16;100.00;100100.94;5052015;28;20025;-70
2023/03/22 05:48:10;;;;;;;56.35;31.48;;;;;;;8.96;100.00;100123.31;5051318;28;20476;-70
2023/03/22 05:50:36;;;;;;;56.17;32.63;;;;;;;9.13;100.00;100098.47;5052411;28;20083;-70
2023/03/22 05:53:02;;;;;;;55.90;31.85;;;;;;;9.20;100.00;100115.22;5052130;28;20036;-70
2023/03/22 05:55:29;;;;;;;51.83;28.33;;;;;;;10.11;100.00;100120.00;5050155;28;20033;-69
2023/03/22 05:57:55;;;;;;;57.80;31.92;;;;;;;9.37;100.00;100121.63;5052102;28;20044;-70
2023/03/22 06:00:22;;;;;;;57.58;34.33;;;;;;;9.11;100.00;100075.66;5052288;28;20048;-72
2023/03/22 06:02:51;;;;;;;54.50;33.10;;;;;;;9.28;100.00;100115.91;5052073;28;20029;-69
2023/03/22 06:05:17;;;;;;;52.47;30.30;;;;;;;9.30;100.00;100148.00;5052039;28;20040;-71
2023/03/22 06:07:43;;;;;;;52.88;31.67;;;;;;;8.97;100.00;100082.75;5051956;28;20040;-71
2023/03/22 06:10:12;;;;;;;52.70;30.05;;;;;;;9.42;100.00;100131.69;5051616;28;20029;-71
2023/03/22 06:12:37;;;;;;;52.58;29.50;;;;;;;9.30;100.00;100155.63;5051083;28;20025;-72
2023/03/22 06:15:04;;;;;;;46.45;28.77;;;;;;;9.11;100.00;100120.50;5051805;28;20044;-74
2023/03/22 06:17:30;;;;;;;51.10;29.98;;;;;;;9.44;100.00;100163.78;5050922;28;20028;-72
2023/03/22 06:19:56;;;;;;;50.35;28.35;;;;;;;9.42;100.00;100162.13;5051073;28;20033;-72
2023/03/22 06:22:22;;;;;;;48.30;28.40;;;;;;;9.36;100.00;100145.34;5051047;28;20505;-72
2023/03/22 06:24:48;;;;;;;42.55;27.08;;;;;;;9.46;100.00;100166.28;5052243;28;20025;-72
2023/03/22 06:27:14;;;;;;;43.20;28.05;;;;;;;9.49;100.00;100163.66;5052410;28;20502;-72
2023/03/22 06:29:40;;;;;;;49.00;28.70;;;;;;;9.67;100.00;100170.06;5051671;28;20037;-72
2023/03/22 06:32:06;;;;;;;47.10;29.60;;;;;;;9.81;100.00;100173.13;5050539;28;20475;-71
2023/03/22 06:34:32;;;;;;;43.20;29.60;;;;;;;9.37;100.00;100125.84;5051740;28;20036;-71
2023/03/22 06:36:58;;;;;;;49.63;30.83;;;;;;;9.56;100.00;100167.75;5052079;28;20509;-73
2023/03/22 06:39:23;;;;;;;43.72;27.80;;;;;;;9.78;100.00;100175.75;5050867;28;20590;-73
2023/03/22 06:41:49;;;;;;;47.40;29.33;;;;;;;9.58;100.00;100184.63;5051851;28;20036;-72
2023/03/22 06:44:15;;;;;;;44.95;28.02;;;;;;;9.72;100.00;100188.59;5050968;28;20017;-72
2023/03/22 06:46:40;;;;;;;43.40;27.73;;;;;;;9.88;100.00;100185.69;5049219;28;20115;-71
2023/03/22 06:49:06;;;;;;;49.40;28.52;;;;;;;9.67;100.00;100196.28;5051343;28;20039;-71
2023/03/22 06:51:32;;;;;;;44.63;27.40;;;;;;;9.46;100.00;100145.97;5051191;28;20514;-70
2023/03/22 06:53:57;;;;;;;40.13;27.45;;;;;;;9.85;100.00;100185.75;5051296;28;20036;-72
2023/03/22 06:56:23;;;;;;;40.35;26.50;;;;;;;9.69;100.00;100148.00;5051895;28;20029;-71
2023/03/22 06:58:50;;;;;;;37.15;23.65;;;;;;;9.46;100.00;100143.44;5051477;28;20052;-72
2023/03/22 07:01:17;;;;;;;37.83;25.00;;;;;;;10.04;100.00;100188.72;5047411;28;20048;-70
2023/03/22 07:03:42;;;;;;;35.70;24.85;;;;;;;9.90;100.00;100163.63;5050457;28;20033;-69
2023/03/22 07:06:08;;;;;;;46.45;26.55;;;;;;;10.03;100.00;100189.56;5049116;28;20029;-70
2023/03/22 07:08:34;;;;;;;41.85;27.10;;;;;;;9.41;100.00;100127.47;5049452;28;20114;-71
2023/03/22 07:11:00;;;;;;;44.08;27.67;;;;;;;9.76;100.00;100169.88;5048942;28;20098;-70
2023/03/22 07:13:26;;;;;;;38.95;27.02;;;;;;;10.14;100.00;100220.69;5048603;28;20025;-71
2023/03/22 07:16:09;;;;;;;38.40;26.90;;;;;;;9.92;100.00;100173.75;5048851;28;20036;-70
2023/03/22 07:18:35;;;;;;;41.50;27.10;;;;;;;9.82;100.00;100136.75;5048996;28;20175;-70
2023/03/22 07:21:01;;;;;;;42.50;26.52;;;;;;;9.63;100.00;100187.06;5049774;28;20108;-70
2023/03/22 07:23:26;;;;;;;39.28;26.35;;;;;;;9.92;100.00;100176.28;5046632;28;20032;-71
2023/03/22 07:25:54;;;;;;;39.00;26.05;;;;;;;10.30;100.00;100242.34;5048639;28;20538;-71
2023/03/22 07:28:20;;;;;;;45.17;27.85;;;;;;;10.11;100.00;100252.09;5049034;28;20060;-71
2023/03/22 07:30:45;;;;;;;44.60;26.42;;;;;;;10.45;100.00;100235.22;5048757;28;20037;-71
2023/03/22 07:33:11;;;;;;;42.38;27.10;;;;;;;10.69;100.00;100240.56;5049452;28;20108;-71
2023/03/22 07:35:37;;;;;;;41.03;25.02;;;;;;;10.20;100.00;100248.50;5049315;28;20116;-70
2023/03/22 07:38:04;;;;;;;38.58;24.55;;;;;;;9.99;100.00;100178.66;5049548;28;20029;-71
2023/03/22 07:40:30;;;;;;;40.38;25.33;;;;;;;10.53;100.00;100214.69;5047622;28;20028;-70
2023/03/22 07:42:57;;;;;;;38.33;24.02;;;;;;;10.87;100.00;100258.78;5047369;28;20519;-71
2023/03/22 07:45:24;;;;;;;32.35;20.67;;;;;;;10.66;100.00;100217.75;5049754;28;20021;-70
2023/03/22 07:47:50;;;;;;;30.38;21.70;;;;;;;10.84;100.00;100269.00;5049828;28;20064;-70
2023/03/22 07:50:16;;;;;;;29.58;21.08;;;;;;;10.65;100.00;100224.56;5049149;28;20078;-71
2023/03/22 07:52:43;;;;;;;41.88;23.83;;;;;;;10.92;100.00;100273.91;5049765;28;20048;-70
2023/03/22 07:55:11;;;;;;;31.08;21.25;;;;;;;11.30;100.00;100291.59;5048212;28;20532;-70
2023/03/22 07:57:36;;;;;;;31.63;22.08;;;;;;;11.29;100.00;100275.47;5051888;28;20041;-71
2023/03/22 08:00:05;;;;;;;31.35;20.52;;;;;;;11.42;100.00;100285.34;5053793;28;20228;-70
2023/03/22 08:02:30;;;;;;;31.58;21.02;;;;;;;11.80;100.00;100287.72;5053320;28;20045;-70
2023/03/22 08:04:56;;;;;;;31.20;20.65;;;;;;;11.59;100.00;100278.91;5053753;28;20132;-71
2023/03/22 08:07:24;;;;;;;33.03;20.35;;;;;;;11.88;100.00;100293.44;5052263;28;20117;-71
2023/03/22 08:09:50;;;;;;;28.88;19.52;;;;;;;11.66;100.00;100300.00;5051151;28;20120;-70
2023/03/22 08:12:15;;;;;;;30.48;19.13;;;;;;;11.45;100.00;100268.25;5052750;28;20039;-70
2023/03/22 08:14:41;;;;;;;33.20;19.83;;;;;;;11.53;100.00;100319.81;5051296;28;20025;-69
2023/03/22 08:17:06;;;;;;;27.85;20.15;;;;;;;11.67;100.00;100260.91;5051219;28;20116;-70
2023/03/22 08:19:33;;;;;;;29.35;20.73;;;;;;;11.99;100.00;100310.09;5052647;28;20040;-70
2023/03/22 08:21:59;;;;;;;32.83;21.48;;;;;;;12.10;100.00;100276.66;5052722;28;20033;-70
2023/03/22 08:24:25;;;;;;;31.13;21.67;;;;;;;12.21;100.00;100317.94;5053067;28;20036;-70
2023/03/22 08:26:52;;;;;;;32.20;21.52;;;;;;;12.78;100.00;100315.34;5053700;28;20168;-71
2023/03/22 08:29:18;;;;;;;34.40;21.90;;;;;;;12.67;100.00;100323.34;5052800;28;20123;-72
2023/03/22 08:31:44;;;;;;;29.65;21.00;;;;;;;12.60;100.00;100377.13;5054698;28;20128;-74
2023/03/22 08:34:10;;;;;;;30.25;20.83;;;;;;;12.69;100.00;100328.41;5054922;28;20065;-74
2023/03/22 08:36:37;;;;;;;30.13;19.92;;;;;;;12.72;100.00;100390.34;5054827;28;20502;-73
2023/03/22 08:39:03;;;;;;;30.80;19.67;;;;;;;12.24;100.00;100360.38;5052602;28;20036;-75
2023/03/22 08:41:29;;;;;;;29.63;20.48;;;;;;;12.58;100.00;100409.50;5053663;28;20032;-75
2023/03/22 08:43:55;;;;;;;27.30;19.25;;;;;;;11.92;100.00;100315.41;5053174;28;20029;-72
2023/03/22 08:46:20;;;;;;;26.15;17.75;;;;;;;11.64;100.00;100353.50;5053373;28;20095;-73
2023/03/22 08:48:52;;;;;;;26.75;18.13;;;;;;;12.24;100.00;100394.31;5052791;28;20036;-73
2023/03/22 08:51:20;;;;;;;27.77;17.00;;;;;;;12.41;100.00;100448.25;5053001;28;20025;-71
2023/03/22 08:53:46;;;;;;;22.10;15.10;;;;;;;12.24;100.00;100458.03;5054252;28;20036;-72
2023/03/22 08:56:15;;;;;;;24.42;15.05;;;;;;;12.07;100.00;100461.06;5053092;28;20063;-73
2023/03/22 08:58:45;;;;;;;29.95;17.90;;;;;;;11.97;100.00;100405.28;5054010;28;20033;-72
2023/03/22 09:01:11;;;;;;;26.75;16.15;;;;;;;11.84;100.00;100398.84;5053554;28;20044;-70
2023/03/22 09:03:37;;;;;;;22.20;14.88;;;;;;;12.02;100.00;100488.38;5051377;28;20033;-72
2023/03/22 09:06:02;;;;;;;28.25;15.48;;;;;;;11.86;100.00;100455.69;5052127;28;20489;-74
2023/03/22 09:08:28;;;;;;;26.45;17.13;;;;;;;11.67;100.00;100477.38;5052820;28;20377;-74
2023/03/22 09:10:54;;;;;;;22.10;16.42;;;;;;;11.55;100.00;100445.38;5053292;28;20029;-74
2023/03/22 09:13:20;;;;;;;23.65;15.25;;;;;;;11.93;100.00;100506.44;5052542;28;20038;-74
2023/03/22 09:15:46;;;;;;;28.80;17.15;;;;;;;11.49;100.00;100430.25;5052629;28;20102;-74
2023/03/22 09:18:12;;;;;;;26.23;16.95;;;;;;;12.02;100.00;100483.25;5052629;28;20043;-74
2023/03/22 09:20:46;;;;;;;29.48;17.77;;;;;;;11.83;100.00;100491.41;5052679;28;20029;-74
2023/03/22 09:23:14;;;;;;;19.95;14.43;;;;;;;11.65;100.00;100444.28;5051708;28;20025;-74
2023/03/22 09:25:42;;;;;;;23.10;13.65;;;;;;;11.96;100.00;100501.25;5052876;28;20035;-74
2023/03/22 09:28:08;;;;;;;21.42;13.57;;;;;;;12.46;100.00;100494.84;5052550;28;20090;-73
2023/03/22 09:30:35;;;;;;;20.45;12.60;;;;;;;11.43;100.00;100466.03;5052365;28;20064;-73
2023/03/22 09:33:01;;;;;;;15.82;11.65;;;;;;;11.17;100.00;100427.66;5051802;28;20051;-74
2023/03/22 09:35:27;;;;;;;15.85;11.73;;;;;;;11.27;100.00;100508.84;5051898;28;20424;-73
2023/03/22 09:37:54;;;;;;;19.42;13.23;;;;;;;11.67;100.00;100526.63;5050994;28;20041;-72
2023/03/22 09:40:28;;;;;;;22.88;15.20;;;;;;;11.33;100.00;100507.84;5052742;28;20389;-74
2023/03/22 09:42:56;;;;;;;22.85;15.10;;;;;;;11.60;100.00;100478.38;5052490;28;20483;-72
2023/03/22 09:45:36;;;;;;;20.50;14.50;;;;;;;12.61;100.00;100471.47;5052476;28;20483;-70
2023/03/22 09:48:05;;;;;;;23.98;15.48;;;;;;;12.28;100.00;100448.63;5051738;28;20033;-70
2023/03/22 09:50:32;;;;;;;20.73;14.07;;;;;;;12.03;100.00;100491.75;5051578;28;20033;-72
2023/03/22 09:52:59;;;;;;;20.08;14.15;;;;;;;12.42;100.00;100507.72;5051739;28;20479;-72
2023/03/22 09:55:33;;;;;;;22.05;14.38;;;;;;;11.88;100.00;100518.47;5050960;28;20112;-71
2023/03/22 09:58:04;;;;;;;18.88;13.50;;;;;;;11.62;100.00;100502.09;5051600;28;20033;-71
2023/03/22 10:00:30;;;;;;;23.40;16.17;;;;;;;12.07;100.00;100516.28;4998760;28;1556293;-70
2023/03/22 10:03:43;;;;;;;16.73;12.80;;;;;;;11.43;100.00;100532.22;5052546;28;20044;-73
2023/03/22 10:06:19;;;;;;;19.15;12.68;;;;;;;11.40;100.00;100526.38;5040033;28;20037;-71
2023/03/22 10:09:03;;;;;;;22.75;14.25;;;;;;;11.38;100.00;100478.06;5050429;28;20093;-71
2023/03/22 10:11:55;;;;;;;22.50;13.73;;;;;;;11.50;100.00;100531.25;4693997;28;10000584;-71
2023/03/22 10:14:27;;;;;;;18.55;14.40;;;;;;;11.49;100.00;100534.66;5028031;28;20121;-69
2023/03/22 10:16:55;;;;;;;18.73;13.00;;;;;;;11.27;100.00;100495.25;5029127;28;20033;-70
2023/03/22 10:19:27;;;;;;;17.45;13.38;;;;;;;11.19;100.00;100476.81;5027388;28;20072;-69
2023/03/22 10:21:55;;;;;;;18.80;13.63;;;;;;;11.43;100.00;100483.06;5029023;28;20038;-69
2023/03/22 10:24:33;;;;;;;19.42;14.18;;;;;;;11.64;100.00;100524.13;5029610;28;20082;-69
2023/03/22 10:26:58;;;;;;;19.13;14.23;;;;;;;11.49;100.00;100467.63;5044037;28;20426;-69
2023/03/22 10:29:34;;;;;;;20.17;14.27;;;;;;;12.32;100.00;100526.69;5027721;28;20030;-70
2023/03/22 10:32:33;;;;;;;18.63;14.15;;;;;;;11.79;100.00;100520.38;5028350;28;20160;-71
2023/03/22 10:34:59;;;;;;;20.10;14.80;;;;;;;11.53;100.00;100436.13;5028420;28;20045;-70
2023/03/22 10:37:30;;;;;;;21.83;15.23;;;;;;;12.51;100.00;100507.47;5037666;28;20397;-72
2023/03/22 10:39:58;;;;;;;18.23;14.18;;;;;;;12.66;100.00;100497.69;5039053;28;20124;-69
2023/03/22 10:42:28;;;;;;;19.30;14.25;;;;;;;13.00;100.00;100515.41;5031835;28;20069;-70
2023/03/22 10:45:01;;;;;;;21.08;14.45;;;;;;;12.55;100.00;100464.00;5045187;28;20056;-70
2023/03/22 10:47:37;;;;;;;20.42;14.02;;;;;;;13.73;100.00;100499.53;5050665;28;20450;-72
2023/03/22 10:50:07;;;;;;;18.52;13.98;;;;;;;13.35;100.00;100517.78;5050860;28;20041;-72
2023/03/22 10:52:48;;;;;;;18.77;13.40;;;;;;;13.41;100.00;100520.13;5051529;28;20120;-73
2023/03/22 10:55:14;;;;;;;15.00;13.27;;;;;;;13.73;100.00;100461.19;5047705;28;20043;-72
2023/03/22 10:57:45;;;;;;;18.10;12.98;;;;;;;13.83;100.00;100493.22;5052210;28;20025;-73
2023/03/22 11:00:16;;;;;;;16.50;13.10;;;;;;;13.75;100.00;100504.59;5051107;28;20029;-73
2023/03/22 11:03:07;;;;;;;16.95;12.85;;;;;;;13.52;100.00;100490.00;5050670;28;20076;-73
2023/03/22 11:05:32;;;;;;;15.15;12.05;;;;;;;13.88;100.00;100501.56;5051168;28;20049;-73
2023/03/22 11:08:01;;;;;;;16.05;12.18;;;;;;;13.07;100.00;100455.69;5051749;28;20043;-73
2023/03/22 11:10:31;;;;;;;14.50;12.13;;;;;;;12.89;100.00;100410.28;5050724;28;20074;-74
2023/03/22 11:13:06;;;;;;;14.88;12.00;;;;;;;13.21;100.00;100461.19;5051717;28;20033;-75
2023/03/22 11:15:35;;;;;;;16.88;11.68;;;;;;;13.50;100.00;100499.44;5051909;28;20059;-74